Terminal Aerodrome Forecast
Issued by NWS

Home | Current Version | Previous Version | Graphics & Text | Print | Product List | Glossary On
Versions: 1 2 3 4 5 6 7 8 9 10 11 12 13 14 15 16 17 18 19 20 21 22 23 24 25 26 27 28
000
FTUS43 KGRB 220829 AAA
TAFRHI
TAF AMD
KRHI 220829Z 2208/2306 17005KT P6SM SCT040 BKN080 WS020/21035KT
      TEMPO 2208/2212 3SM BR BKN040
     FM221300 19006KT P6SM SCT060 BKN090
     FM221800 20008KT P6SM FEW100 SCT200
     FM230400 19006KT P6SM FEW200 WS010/22020KT=

USA.gov is the U.S. government's official web portal to all federal, state and local government web resources and services.